Terminal Aerodrome Forecast
Issued by NWS

Home | Current Version | Previous Version | Graphics & Text | Print | Product List | Glossary On
Versions: 1 2 3 4 5 6 7 8 9 10 11 12 13 14 15 16 17 18 19 20
000
FTUS43 KTOP 161157
TAFMHK
TAF
KMHK 161157Z 1612/1712 16008KT P6SM VCTS BKN030 OVC090CB
      TEMPO 1612/1614 3SM TSRA BKN030CB
     FM161400 17006KT P6SM VCTS OVC030CB
     FM161600 19008KT P6SM SCT030
     FM162000 22008KT P6SM TSRA BKN040CB
     FM170200 28005KT P6SM BKN110=

USA.gov is the U.S. government's official web portal to all federal, state and local government web resources and services.